Time,TemperatureF,DewpointF,PressureIn,WindDirection,WindDirectionDegrees,WindSpeedMPH,WindSpeedGustMPH,Humidity,HourlyPrecipIn,Conditions,Clouds,dailyrainin,SoftwareType,DateUTC
2013-09-07 00:00:00,59.8,57.2,30.13,North,0,0.0,0.0,91,0.00,,,1.17,WUHU216HW,2013-09-07 07:00:00,
2013-09-07 00:04:00,59.8,57.4,30.13,North,0,0.0,0.0,92,0.00,,,0.00,WUHU216HW,2013-09-07 07:04:00,
2013-09-07 00:09:00,59.6,57.2,30.13,North,0,0.0,0.0,92,0.00,,,0.00,WUHU216HW,2013-09-07 07:09:00,
2013-09-07 00:14:00,59.6,57.2,30.13,North,0,0.0,0.0,92,0.00,,,0.00,WUHU216HW,2013-09-07 07:14:00,
2013-09-07 00:19:00,59.4,57.1,30.13,North,0,0.0,0.0,92,0.00,,,0.00,WUHU216HW,2013-09-07 07:19:00,
2013-09-07 00:25:00,59.4,57.1,30.13,North,0,0.0,0.0,92,0.00,,,0.00,WUHU216HW,2013-09-07 07:25:00,
2013-09-07 00:30:00,59.4,57.1,30.13,North,0,0.0,0.0,92,0.00,,,0.00,WUHU216HW,2013-09-07 07:30:00,
2013-09-07 00:35:00,59.4,57.1,30.13,North,0,0.0,0.0,92,0.00,,,0.00,WUHU216HW,2013-09-07 07:35:00,
2013-09-07 00:40:00,59.2,56.9,30.13,North,0,0.0,0.0,92,0.00,,,0.00,WUHU216HW,2013-09-07 07:40:00,
2013-09-07 00:45:00,59.2,56.9,30.13,North,0,0.0,0.0,92,0.00,,,0.00,WUHU216HW,2013-09-07 07:45:00,
2013-09-07 00:50:00,59.0,56.7,30.13,North,0,0.0,0.0,92,0.00,,,0.00,WUHU216HW,2013-09-07 07:50:00,
2013-09-07 00:55:00,59.0,56.7,30.13,North,0,0.0,0.0,92,0.00,,,0.00,WUHU216HW,2013-09-07 07:55:00,
2013-09-07 01:00:00,59.0,56.7,30.12,North,0,0.0,0.0,92,0.00,,,0.00,WUHU216HW,2013-09-07 08:00:00,
2013-09-07 01:05:00,58.9,56.5,30.13,North,0,0.0,0.0,92,0.00,,,0.00,WUHU216HW,2013-09-07 08:05:00,
2013-09-07 01:10:00,58.9,56.5,30.13,North,0,0.0,0.0,92,0.00,,,0.00,WUHU216HW,2013-09-07 08:10:00,
2013-09-07 01:15:00,59.0,56.7,30.13,North,0,0.0,0.0,92,0.00,,,0.00,WUHU216HW,2013-09-07 08:15:00,
2013-09-07 01:20:00,59.0,57.1,30.13,North,0,0.0,0.0,93,0.00,,,0.00,WUHU216HW,2013-09-07 08:20:00,
2013-09-07 01:25:00,59.2,57.3,30.13,North,0,0.0,0.0,93,0.00,,,0.00,WUHU216HW,2013-09-07 08:25:00,
2013-09-07 01:30:00,59.2,57.3,30.13,North,0,0.0,0.0,93,0.00,,,0.00,WUHU216HW,2013-09-07 08:30:00,
2013-09-07 01:35:00,59.4,57.4,30.13,North,0,0.0,0.0,93,0.00,,,0.00,WUHU216HW,2013-09-07 08:35:00,
2013-09-07 01:40:00,59.4,57.4,30.13,North,0,0.0,0.0,93,0.00,,,0.00,WUHU216HW,2013-09-07 08:40:00,
2013-09-07 01:46:00,59.4,57.4,30.13,North,0,0.0,0.0,93,0.00,,,0.00,WUHU216HW,2013-09-07 08:46:00,
2013-09-07 01:51:00,59.4,57.4,30.13,North,0,0.0,0.0,93,0.00,,,0.00,WUHU216HW,2013-09-07 08:51:00,
2013-09-07 01:56:00,59.4,57.4,30.12,North,0,0.0,0.0,93,0.00,,,0.00,WUHU216HW,2013-09-07 08:56:00,
2013-09-07 02:01:00,59.4,57.4,30.12,North,0,0.0,0.0,93,0.00,,,0.00,WUHU216HW,2013-09-07 09:01:00,
2013-09-07 02:06:00,59.4,57.4,30.12,North,0,0.0,0.0,93,0.00,,,0.00,WUHU216HW,2013-09-07 09:06:00,
2013-09-07 02:11:00,59.6,57.6,30.12,North,0,0.0,0.0,93,0.00,,,0.00,WUHU216HW,2013-09-07 09:11:00,
2013-09-07 02:16:00,59.6,57.6,30.12,North,0,0.0,0.0,93,0.00,,,0.00,WUHU216HW,2013-09-07 09:16:00,
2013-09-07 02:21:00,59.6,57.6,30.12,North,0,0.0,0.0,93,0.00,,,0.00,WUHU216HW,2013-09-07 09:21:00,
2013-09-07 02:26:00,59.6,57.6,30.12,North,0,0.0,0.0,93,0.00,,,0.00,WUHU216HW,2013-09-07 09:26:00,
2013-09-07 02:31:00,59.6,57.6,30.12,North,0,0.0,0.0,93,0.00,,,0.00,WUHU216HW,2013-09-07 09:31:00,
2013-09-07 02:36:00,59.8,57.8,30.12,North,0,0.0,0.0,93,0.00,,,0.00,WUHU216HW,2013-09-07 09:36:00,
2013-09-07 02:41:00,59.8,57.8,30.12,North,0,0.0,0.0,93,0.00,,,0.00,WUHU216HW,2013-09-07 09:41:00,
2013-09-07 02:46:00,59.8,57.8,30.11,North,0,0.0,0.0,93,0.00,,,0.00,WUHU216HW,2013-09-07 09:46:00,
2013-09-07 02:51:00,59.8,57.8,30.11,North,0,0.0,0.0,93,0.00,,,0.00,WUHU216HW,2013-09-07 09:51:00,
2013-09-07 02:56:00,59.8,57.8,30.11,North,0,0.0,0.0,93,0.00,,,0.00,WUHU216HW,2013-09-07 09:56:00,
2013-09-07 03:01:00,59.8,57.8,30.11,North,0,0.0,0.0,93,0.00,,,0.00,WUHU216HW,2013-09-07 10:01:00,
2013-09-07 03:06:00,59.8,57.8,30.12,North,0,0.0,0.0,93,0.00,,,0.00,WUHU216HW,2013-09-07 10:06:00,
2013-09-07 03:11:00,59.8,57.8,30.11,North,0,0.0,0.0,93,0.00,,,0.00,WUHU216HW,2013-09-07 10:11:00,
2013-09-07 03:16:00,59.9,58.0,30.11,North,0,0.0,0.0,93,0.00,,,0.00,WUHU216HW,2013-09-07 10:16:00,
2013-09-07 03:21:00,59.9,58.0,30.11,North,0,0.0,0.0,93,0.00,,,0.00,WUHU216HW,2013-09-07 10:21:00,
2013-09-07 03:26:00,59.9,58.0,30.11,North,0,0.0,0.0,93,0.00,,,0.00,WUHU216HW,2013-09-07 10:26:00,
2013-09-07 03:31:00,59.9,58.0,30.11,North,0,0.0,0.0,93,0.00,,,0.00,WUHU216HW,2013-09-07 10:31:00,
2013-09-07 03:36:00,59.9,58.0,30.11,North,0,0.0,0.0,93,0.00,,,0.00,WUHU216HW,2013-09-07 10:36:00,
2013-09-07 03:41:00,59.8,57.8,30.11,North,0,0.0,0.0,93,0.00,,,0.00,WUHU216HW,2013-09-07 10:41:00,
2013-09-07 03:46:00,59.8,57.8,30.11,North,0,0.0,0.0,93,0.00,,,0.00,WUHU216HW,2013-09-07 10:46:00,
2013-09-07 03:51:00,59.8,57.8,30.11,North,0,0.0,0.0,93,0.00,,,0.00,WUHU216HW,2013-09-07 10:51:00,
2013-09-07 03:56:00,59.8,57.8,30.11,North,0,0.0,0.0,93,0.00,,,0.00,WUHU216HW,2013-09-07 10:56:00,
2013-09-07 04:01:00,59.8,57.8,30.11,North,0,0.0,0.0,93,0.00,,,0.00,WUHU216HW,2013-09-07 11:01:00,
2013-09-07 04:06:00,59.8,57.8,30.11,North,0,0.0,0.0,93,0.00,,,0.00,WUHU216HW,2013-09-07 11:06:00,
2013-09-07 04:11:00,59.8,57.8,30.11,North,0,0.0,0.0,93,0.00,,,0.00,WUHU216HW,2013-09-07 11:11:00,
2013-09-07 04:16:00,59.8,57.8,30.11,North,0,0.0,0.0,93,0.00,,,0.00,WUHU216HW,2013-09-07 11:16:00,
2013-09-07 04:21:00,59.8,57.8,30.11,North,0,0.0,0.0,93,0.00,,,0.00,WUHU216HW,2013-09-07 11:21:00,
2013-09-07 04:26:00,59.8,57.8,30.11,North,0,0.0,0.0,93,0.00,,,0.00,WUHU216HW,2013-09-07 11:26:00,
2013-09-07 04:31:00,59.8,57.8,30.11,North,0,0.0,0.0,93,0.00,,,0.00,WUHU216HW,2013-09-07 11:31:00,
2013-09-07 04:36:00,59.8,57.8,30.11,North,0,0.0,0.0,93,0.00,,,0.00,WUHU216HW,2013-09-07 11:36:00,
2013-09-07 04:41:00,59.8,57.8,30.11,North,0,0.0,0.0,93,0.00,,,0.00,WUHU216HW,2013-09-07 11:41:00,
2013-09-07 04:46:00,59.8,57.8,30.11,North,0,0.0,0.0,93,0.00,,,0.00,WUHU216HW,2013-09-07 11:46:00,
2013-09-07 04:51:00,59.9,58.0,30.11,North,0,0.0,0.0,93,0.00,,,0.00,WUHU216HW,2013-09-07 11:51:00,
2013-09-07 04:56:00,59.9,58.0,30.11,North,0,0.0,0.0,93,0.00,,,0.00,WUHU216HW,2013-09-07 11:56:00,
2013-09-07 05:01:00,59.9,58.0,30.10,North,0,0.0,0.0,93,0.00,,,0.00,WUHU216HW,2013-09-07 12:01:00,
2013-09-07 05:05:00,59.9,58.0,30.10,North,0,0.0,0.0,93,0.00,,,0.00,WUHU216HW,2013-09-07 12:05:00,
2013-09-07 05:10:00,59.9,58.0,30.10,North,0,0.0,0.0,93,0.00,,,0.00,WUHU216HW,2013-09-07 12:10:00,
2013-09-07 05:15:00,59.9,58.0,30.10,North,0,0.0,0.0,93,0.00,,,0.00,WUHU216HW,2013-09-07 12:15:00,
2013-09-07 05:22:00,59.9,58.0,30.10,North,0,0.0,0.0,93,0.00,,,0.00,WUHU216HW,2013-09-07 12:22:00,
2013-09-07 05:27:00,59.9,58.0,30.09,North,0,0.0,0.0,93,0.00,,,0.00,WUHU216HW,2013-09-07 12:27:00,
2013-09-07 05:32:00,59.9,58.0,30.10,North,0,0.0,0.0,93,0.00,,,0.00,WUHU216HW,2013-09-07 12:32:00,
2013-09-07 05:37:00,59.9,58.0,30.10,North,0,0.0,0.0,93,0.00,,,0.00,WUHU216HW,2013-09-07 12:37:00,
2013-09-07 05:42:00,59.8,57.8,30.10,North,0,0.0,0.0,93,0.00,,,0.00,WUHU216HW,2013-09-07 12:42:00,
2013-09-07 05:47:00,59.8,57.8,30.10,North,0,0.0,0.0,93,0.00,,,0.00,WUHU216HW,2013-09-07 12:47:00,
2013-09-07 05:52:00,59.8,57.8,30.09,North,0,0.0,0.0,93,0.00,,,0.00,WUHU216HW,2013-09-07 12:52:00,
2013-09-07 05:57:00,59.8,57.8,30.09,North,0,0.0,0.0,93,0.00,,,0.00,WUHU216HW,2013-09-07 12:57:00,
2013-09-07 06:02:00,59.9,58.0,30.09,North,0,0.0,0.0,93,0.00,,,0.00,WUHU216HW,2013-09-07 13:02:00,
2013-09-07 06:07:00,59.8,57.8,30.09,North,0,0.0,0.0,93,0.00,,,0.00,WUHU216HW,2013-09-07 13:07:00,
2013-09-07 06:12:00,59.8,57.8,30.09,North,0,0.0,0.0,93,0.00,,,0.00,WUHU216HW,2013-09-07 13:12:00,
2013-09-07 06:17:00,59.8,57.8,30.09,North,0,0.0,0.0,93,0.00,,,0.00,WUHU216HW,2013-09-07 13:17:00,
2013-09-07 06:22:00,59.8,57.8,30.09,North,0,0.0,0.0,93,0.00,,,0.00,WUHU216HW,2013-09-07 13:22:00,
2013-09-07 06:27:00,59.8,57.8,30.09,North,0,0.0,0.0,93,0.00,,,0.00,WUHU216HW,2013-09-07 13:27:00,
2013-09-07 06:32:00,59.6,57.6,30.09,North,0,0.0,0.0,93,0.00,,,0.00,WUHU216HW,2013-09-07 13:32:00,
2013-09-07 06:37:00,59.6,57.6,30.09,North,0,0.0,0.0,93,0.00,,,0.00,WUHU216HW,2013-09-07 13:37:00,
2013-09-07 06:42:00,59.6,57.6,30.09,North,0,0.0,0.0,93,0.00,,,0.00,WUHU216HW,2013-09-07 13:42:00,
2013-09-07 06:47:00,59.4,57.4,30.09,North,0,0.0,0.0,93,0.00,,,0.00,WUHU216HW,2013-09-07 13:47:00,
2013-09-07 06:52:00,59.4,57.4,30.09,North,0,0.0,0.0,93,0.00,,,0.00,WUHU216HW,2013-09-07 13:52:00,
2013-09-07 06:57:00,59.4,57.4,30.09,North,0,0.0,0.0,93,0.00,,,0.00,WUHU216HW,2013-09-07 13:57:00,
2013-09-07 07:02:00,59.4,57.4,30.09,North,0,0.0,0.0,93,0.00,,,0.00,WUHU216HW,2013-09-07 14:02:00,
2013-09-07 07:07:00,59.6,57.6,30.09,North,0,0.0,0.0,93,0.00,,,0.00,WUHU216HW,2013-09-07 14:07:00,
2013-09-07 07:12:00,59.6,57.6,30.09,North,0,0.0,0.0,93,0.00,,,0.00,WUHU216HW,2013-09-07 14:12:00,
2013-09-07 07:17:00,59.6,57.6,30.09,North,0,0.0,0.0,93,0.00,,,0.00,WUHU216HW,2013-09-07 14:17:00,
2013-09-07 07:22:00,59.8,57.8,30.09,North,0,0.0,0.0,93,0.00,,,0.00,WUHU216HW,2013-09-07 14:22:00,
2013-09-07 07:27:00,59.8,57.8,30.09,North,0,0.0,0.0,93,0.00,,,0.00,WUHU216HW,2013-09-07 14:27:00,
2013-09-07 07:32:00,59.9,58.0,30.09,North,0,0.0,0.0,93,0.00,,,0.00,WUHU216HW,2013-09-07 14:32:00,
2013-09-07 07:37:00,59.9,58.0,30.09,North,0,0.0,0.0,93,0.00,,,0.00,WUHU216HW,2013-09-07 14:37:00,
2013-09-07 07:42:00,60.1,58.2,30.09,North,0,0.0,0.0,93,0.00,,,0.00,WUHU216HW,2013-09-07 14:42:00,
2013-09-07 07:48:00,60.1,58.2,30.09,North,0,0.0,0.0,93,0.00,,,0.00,WUHU216HW,2013-09-07 14:48:00,
2013-09-07 07:53:00,60.3,58.3,30.09,North,0,0.0,0.0,93,0.00,,,0.00,WUHU216HW,2013-09-07 14:53:00,
2013-09-07 07:58:00,60.3,58.3,30.09,North,0,0.0,0.0,93,0.00,,,0.00,WUHU216HW,2013-09-07 14:58:00,
2013-09-07 08:03:00,60.5,58.5,30.09,North,0,0.0,0.0,93,0.00,,,0.00,WUHU216HW,2013-09-07 15:03:00,
2013-09-07 08:08:00,60.5,58.5,30.09,North,0,0.0,0.0,93,0.00,,,0.00,WUHU216HW,2013-09-07 15:08:00,
2013-09-07 08:13:00,60.7,58.7,30.09,North,0,0.0,0.0,93,0.00,,,0.00,WUHU216HW,2013-09-07 15:13:00,
2013-09-07 08:18:00,60.8,58.9,30.09,North,0,0.0,0.0,93,0.00,,,0.00,WUHU216HW,2013-09-07 15:18:00,
2013-09-07 08:23:00,61.0,59.1,30.09,North,0,0.0,0.0,93,0.00,,,0.00,WUHU216HW,2013-09-07 15:23:00,
2013-09-07 08:28:00,61.2,59.2,30.08,North,0,0.0,0.0,93,0.00,,,0.00,WUHU216HW,2013-09-07 15:28:00,
2013-09-07 08:33:00,61.2,59.2,30.09,North,0,0.0,0.0,93,0.00,,,0.00,WUHU216HW,2013-09-07 15:33:00,
2013-09-07 08:38:00,61.4,59.4,30.09,North,0,0.0,0.0,93,0.00,,,0.00,WUHU216HW,2013-09-07 15:38:00,
2013-09-07 08:43:00,61.7,59.8,30.09,North,0,0.0,0.0,93,0.00,,,0.00,WUHU216HW,2013-09-07 15:43:00,
2013-09-07 08:48:00,62.1,59.8,30.09,North,0,0.0,0.0,92,0.00,,,0.00,WUHU216HW,2013-09-07 15:48:00,
2013-09-07 08:53:00,62.3,59.4,30.09,North,0,0.0,0.0,90,0.00,,,0.00,WUHU216HW,2013-09-07 15:53:00,
2013-09-07 08:58:00,62.5,59.9,30.09,North,0,0.0,0.0,91,0.00,,,0.00,WUHU216HW,2013-09-07 15:58:00,
2013-09-07 09:03:00,62.3,59.0,30.09,North,0,0.0,0.0,89,0.00,,,0.00,WUHU216HW,2013-09-07 16:03:00,
2013-09-07 09:08:00,62.3,59.4,30.09,North,0,0.0,0.0,90,0.00,,,0.00,WUHU216HW,2013-09-07 16:08:00,
2013-09-07 09:13:00,62.5,59.6,30.08,North,0,0.0,0.0,90,0.00,,,0.00,WUHU216HW,2013-09-07 16:13:00,
2013-09-07 09:18:00,62.5,59.6,30.08,North,0,0.0,0.0,90,0.00,,,0.00,WUHU216HW,2013-09-07 16:18:00,
2013-09-07 09:23:00,62.5,59.6,30.09,North,0,0.0,0.0,90,0.00,,,0.00,WUHU216HW,2013-09-07 16:23:00,
2013-09-07 09:28:00,62.6,59.4,30.09,North,0,0.0,0.0,89,0.00,,,0.00,WUHU216HW,2013-09-07 16:28:00,
2013-09-07 09:34:00,62.6,59.4,30.09,North,0,0.0,0.0,89,0.00,,,0.00,WUHU216HW,2013-09-07 16:34:00,
2013-09-07 09:39:00,62.8,59.6,30.09,North,0,0.0,0.0,89,0.00,,,0.00,WUHU216HW,2013-09-07 16:39:00,
2013-09-07 09:44:00,62.8,59.2,30.09,North,0,0.0,0.0,88,0.00,,,0.00,WUHU216HW,2013-09-07 16:44:00,
2013-09-07 09:49:00,62.6,58.8,30.10,North,0,0.0,0.0,87,0.00,,,0.00,WUHU216HW,2013-09-07 16:49:00,
2013-09-07 09:54:00,62.6,58.8,30.10,North,0,0.0,0.0,87,0.00,,,0.00,WUHU216HW,2013-09-07 16:54:00,
2013-09-07 09:59:00,63.0,59.4,30.09,North,0,0.0,0.0,88,0.00,,,0.00,WUHU216HW,2013-09-07 16:59:00,
2013-09-07 10:06:00,63.4,59.8,30.10,North,0,0.0,0.0,88,0.00,,,0.00,WUHU216HW,2013-09-07 17:06:00,
2013-09-07 10:11:00,63.5,59.7,30.09,North,0,0.0,0.0,87,0.00,,,0.00,WUHU216HW,2013-09-07 17:11:00,
2013-09-07 10:16:00,63.9,60.0,30.09,North,0,0.0,0.0,87,0.00,,,0.00,WUHU216HW,2013-09-07 17:16:00,
2013-09-07 10:21:00,63.7,59.5,30.09,North,0,0.0,0.0,86,0.00,,,0.00,WUHU216HW,2013-09-07 17:21:00,
2013-09-07 10:26:00,63.7,59.1,30.09,North,0,0.0,0.0,85,0.00,,,0.00,WUHU216HW,2013-09-07 17:26:00,
2013-09-07 10:31:00,63.7,59.5,30.09,North,0,0.0,0.0,86,0.00,,,0.00,WUHU216HW,2013-09-07 17:31:00,
2013-09-07 10:36:00,63.9,59.7,30.09,North,0,0.0,0.0,86,0.00,,,0.00,WUHU216HW,2013-09-07 17:36:00,
2013-09-07 10:41:00,63.9,59.3,30.09,North,0,0.0,0.0,85,0.00,,,0.00,WUHU216HW,2013-09-07 17:41:00,
2013-09-07 10:46:00,63.9,59.7,30.09,North,0,0.0,0.0,86,0.00,,,0.00,WUHU216HW,2013-09-07 17:46:00,
2013-09-07 10:51:00,64.1,59.9,30.09,North,0,0.0,0.0,86,0.00,,,0.00,WUHU216HW,2013-09-07 17:51:00,
2013-09-07 10:56:00,64.1,59.9,30.08,North,0,0.0,0.0,86,0.00,,,0.00,WUHU216HW,2013-09-07 17:56:00,
2013-09-07 11:01:00,64.3,60.0,30.09,North,0,0.0,0.0,86,0.00,,,0.00,WUHU216HW,2013-09-07 18:01:00,
2013-09-07 11:06:00,64.3,60.0,30.09,North,0,0.0,0.0,86,0.00,,,0.00,WUHU216HW,2013-09-07 18:06:00,
2013-09-07 11:11:00,64.4,59.9,30.09,North,0,0.0,0.0,85,0.00,,,0.00,WUHU216HW,2013-09-07 18:11:00,
2013-09-07 11:16:00,64.4,60.2,30.09,North,0,0.0,0.0,86,0.00,,,0.00,WUHU216HW,2013-09-07 18:16:00,
2013-09-07 11:21:00,64.6,60.4,30.09,North,0,0.0,0.0,86,0.00,,,0.00,WUHU216HW,2013-09-07 18:21:00,
2013-09-07 11:26:00,64.6,60.0,30.09,North,0,0.0,0.0,85,0.00,,,0.00,WUHU216HW,2013-09-07 18:26:00,
2013-09-07 11:31:00,64.8,60.2,30.08,North,0,0.0,0.0,85,0.00,,,0.00,WUHU216HW,2013-09-07 18:31:00,
2013-09-07 11:36:00,64.8,60.6,30.08,North,0,0.0,0.0,86,0.00,,,0.00,WUHU216HW,2013-09-07 18:36:00,
2013-09-07 11:41:00,64.6,59.7,30.08,North,0,0.0,0.0,84,0.00,,,0.00,WUHU216HW,2013-09-07 18:41:00,
2013-09-07 11:46:00,64.8,59.9,30.08,North,0,0.0,0.0,84,0.00,,,0.00,WUHU216HW,2013-09-07 18:46:00,
2013-09-07 11:51:00,64.8,60.2,30.08,North,0,0.0,0.0,85,0.00,,,0.00,WUHU216HW,2013-09-07 18:51:00,
2013-09-07 11:56:00,65.0,60.0,30.08,North,0,0.0,0.0,84,0.00,,,0.00,WUHU216HW,2013-09-07 18:56:00,
2013-09-07 12:01:00,65.0,60.0,30.08,North,0,0.0,0.0,84,0.00,,,0.00,WUHU216HW,2013-09-07 19:01:00,
2013-09-07 12:06:00,65.2,60.6,30.08,North,0,0.0,0.0,85,0.00,,,0.00,WUHU216HW,2013-09-07 19:06:00,
2013-09-07 12:11:00,65.3,60.4,30.08,North,0,0.0,0.0,84,0.00,,,0.00,WUHU216HW,2013-09-07 19:11:00,
2013-09-07 12:16:00,65.3,60.8,30.08,North,0,0.0,0.0,85,0.00,,,0.00,WUHU216HW,2013-09-07 19:16:00,
2013-09-07 12:21:00,65.5,60.6,30.08,North,0,0.0,0.0,84,0.00,,,0.00,WUHU216HW,2013-09-07 19:21:00,
2013-09-07 12:26:00,65.3,60.4,30.08,North,0,0.0,0.0,84,0.00,,,0.00,WUHU216HW,2013-09-07 19:26:00,
2013-09-07 12:31:00,65.5,60.8,30.08,North,0,0.0,0.0,85,0.00,,,0.00,WUHU216HW,2013-09-07 19:31:00,
2013-09-07 12:36:00,65.9,60.9,30.08,North,0,0.0,0.0,84,0.00,,,0.00,WUHU216HW,2013-09-07 19:36:00,
2013-09-07 12:41:00,65.7,60.8,30.08,North,0,0.0,0.0,84,0.00,,,0.00,WUHU216HW,2013-09-07 19:41:00,
2013-09-07 12:46:00,65.9,60.9,30.08,North,0,0.0,0.0,84,0.00,,,0.00,WUHU216HW,2013-09-07 19:46:00,
2013-09-07 12:53:00,66.1,61.0,30.08,North,0,0.0,0.0,84,0.00,,,0.00,WUHU216HW,2013-09-07 19:53:00,
2013-09-07 12:58:00,66.2,60.6,30.08,North,0,0.0,0.0,82,0.00,,,0.00,WUHU216HW,2013-09-07 19:58:00,
2013-09-07 13:03:00,66.6,60.9,30.08,North,0,0.0,0.0,82,0.00,,,0.00,WUHU216HW,2013-09-07 20:03:00,
2013-09-07 13:08:00,66.8,60.9,30.08,North,0,0.0,0.0,81,0.00,,,0.00,WUHU216HW,2013-09-07 20:08:00,
2013-09-07 13:13:00,66.8,61.1,30.08,North,0,0.0,0.0,82,0.00,,,0.00,WUHU216HW,2013-09-07 20:13:00,
2013-09-07 13:18:00,67.0,61.0,30.08,North,0,0.0,0.0,81,0.00,,,0.00,WUHU216HW,2013-09-07 20:18:00,
2013-09-07 13:23:00,67.3,61.7,30.08,North,0,0.0,0.0,82,0.00,,,0.00,WUHU216HW,2013-09-07 20:23:00,
2013-09-07 13:28:00,67.7,61.4,30.08,North,0,0.0,0.0,80,0.00,,,0.00,WUHU216HW,2013-09-07 20:28:00,
2013-09-07 13:33:00,68.0,62.1,30.08,North,0,0.0,0.0,81,0.00,,,0.00,WUHU216HW,2013-09-07 20:33:00,
2013-09-07 13:38:00,68.8,62.0,30.08,North,0,0.0,0.0,79,0.00,,,0.00,WUHU216HW,2013-09-07 20:38:00,
2013-09-07 13:43:00,68.2,61.1,30.08,North,0,0.0,0.0,78,0.00,,,0.00,WUHU216HW,2013-09-07 20:43:00,
2013-09-07 13:48:00,68.8,61.3,30.07,North,0,0.0,0.0,77,0.00,,,0.00,WUHU216HW,2013-09-07 20:48:00,
2013-09-07 13:53:00,69.1,61.2,30.07,North,0,0.0,0.0,76,0.00,,,0.00,WUHU216HW,2013-09-07 20:53:00,
2013-09-07 13:58:00,68.9,60.7,30.07,North,0,0.0,0.0,75,0.00,,,0.00,WUHU216HW,2013-09-07 20:58:00,
2013-09-07 14:03:00,69.5,60.8,30.07,North,0,0.0,0.0,74,0.00,,,0.00,WUHU216HW,2013-09-07 21:03:00,
2013-09-07 14:08:00,70.2,61.5,30.07,North,0,0.0,0.0,74,0.00,,,0.00,WUHU216HW,2013-09-07 21:08:00,
2013-09-07 14:13:00,70.7,62.0,30.07,North,0,0.0,0.0,74,0.00,,,0.00,WUHU216HW,2013-09-07 21:13:00,
2013-09-07 14:18:00,70.9,61.0,30.07,North,0,0.0,0.0,71,0.00,,,0.00,WUHU216HW,2013-09-07 21:18:00,
2013-09-07 14:23:00,70.7,60.8,30.07,North,0,0.0,0.0,71,0.00,,,0.00,WUHU216HW,2013-09-07 21:23:00,
2013-09-07 14:28:00,70.7,61.2,30.06,North,0,0.0,0.0,72,0.00,,,0.00,WUHU216HW,2013-09-07 21:28:00,
2013-09-07 14:33:00,70.7,61.7,30.07,North,0,0.0,0.0,73,0.00,,,0.00,WUHU216HW,2013-09-07 21:33:00,
2013-09-07 14:38:00,70.6,61.0,30.06,North,0,0.0,0.0,72,0.00,,,0.00,WUHU216HW,2013-09-07 21:38:00,
2013-09-07 14:43:00,69.8,60.3,30.07,North,0,0.0,0.0,72,0.00,,,0.00,WUHU216HW,2013-09-07 21:43:00,
2013-09-07 14:48:00,69.7,60.6,30.07,North,0,0.0,0.0,73,0.00,,,0.00,WUHU216HW,2013-09-07 21:48:00,
2013-09-07 14:53:00,70.0,60.9,30.07,North,0,0.0,0.0,73,0.00,,,0.00,WUHU216HW,2013-09-07 21:53:00,
2013-09-07 14:58:00,70.4,60.8,30.07,North,0,0.0,0.0,72,0.00,,,0.00,WUHU216HW,2013-09-07 21:58:00,
2013-09-07 15:03:00,70.7,61.2,30.07,North,0,0.0,0.0,72,0.00,,,0.00,WUHU216HW,2013-09-07 22:03:00,
2013-09-07 15:08:00,70.7,60.5,30.07,North,0,0.0,0.0,70,0.00,,,0.00,WUHU216HW,2013-09-07 22:08:00,
2013-09-07 15:13:00,70.4,60.8,30.07,North,0,0.0,0.0,72,0.00,,,0.00,WUHU216HW,2013-09-07 22:13:00,
2013-09-07 15:18:00,70.7,60.8,30.06,North,0,0.0,0.0,71,0.00,,,0.00,WUHU216HW,2013-09-07 22:18:00,
2013-09-07 15:23:00,70.9,61.4,30.06,North,0,0.0,0.0,72,0.00,,,0.00,WUHU216HW,2013-09-07 22:23:00,
2013-09-07 15:28:00,71.6,61.4,30.07,North,0,0.0,0.0,70,0.00,,,0.00,WUHU216HW,2013-09-07 22:28:00,
2013-09-07 15:33:00,71.8,61.6,30.07,North,0,0.0,0.0,70,0.00,,,0.00,WUHU216HW,2013-09-07 22:33:00,
2013-09-07 15:38:00,71.6,61.4,30.07,North,0,0.0,0.0,70,0.00,,,0.00,WUHU216HW,2013-09-07 22:38:00,
2013-09-07 15:43:00,71.6,60.9,30.07,North,0,0.0,0.0,69,0.00,,,0.00,WUHU216HW,2013-09-07 22:43:00,
2013-09-07 15:48:00,71.8,61.6,30.06,North,0,0.0,0.0,70,0.00,,,0.00,WUHU216HW,2013-09-07 22:48:00,
2013-09-07 15:53:00,72.4,61.7,30.07,North,0,0.0,0.0,69,0.00,,,0.00,WUHU216HW,2013-09-07 22:53:00,
2013-09-07 15:58:00,72.5,61.4,30.06,North,0,0.0,0.0,68,0.00,,,0.00,WUHU216HW,2013-09-07 22:58:00,
2013-09-07 16:03:00,72.7,61.1,30.06,North,0,0.0,0.0,67,0.00,,,0.00,WUHU216HW,2013-09-07 23:03:00,
2013-09-07 16:08:00,72.5,61.4,30.06,North,0,0.0,0.0,68,0.00,,,0.00,WUHU216HW,2013-09-07 23:08:00,
2013-09-07 16:13:00,72.4,61.2,30.06,North,0,0.0,0.0,68,0.00,,,0.00,WUHU216HW,2013-09-07 23:13:00,
2013-09-07 16:18:00,72.4,61.2,30.06,North,0,0.0,0.0,68,0.00,,,0.00,WUHU216HW,2013-09-07 23:18:00,
2013-09-07 16:23:00,72.5,61.4,30.06,North,0,0.0,0.0,68,0.00,,,0.00,WUHU216HW,2013-09-07 23:23:00,
2013-09-07 16:28:00,72.7,60.7,30.06,North,0,0.0,0.0,66,0.00,,,0.00,WUHU216HW,2013-09-07 23:28:00,
2013-09-07 16:33:00,72.4,60.3,30.06,North,0,0.0,0.0,66,0.00,,,0.00,WUHU216HW,2013-09-07 23:33:00,
2013-09-07 16:38:00,72.4,60.8,30.06,North,0,0.0,0.0,67,0.00,,,0.00,WUHU216HW,2013-09-07 23:38:00,
2013-09-07 16:43:00,72.4,60.8,30.06,North,0,0.0,0.0,67,0.00,,,0.00,WUHU216HW,2013-09-07 23:43:00,
2013-09-07 16:48:00,72.9,61.3,30.06,North,0,0.0,0.0,67,0.00,,,0.00,WUHU216HW,2013-09-07 23:48:00,
2013-09-07 16:53:00,73.1,61.0,30.06,North,0,0.0,0.0,66,0.00,,,0.00,WUHU216HW,2013-09-07 23:53:00,
2013-09-07 16:58:00,72.7,60.7,30.06,North,0,0.0,0.0,66,0.00,,,0.00,WUHU216HW,2013-09-07 23:58:00,
2013-09-07 17:03:00,72.2,61.0,30.06,North,0,0.0,0.0,68,0.00,,,0.00,WUHU216HW,2013-09-08 00:03:00,
2013-09-07 17:08:00,72.0,60.4,30.06,North,0,0.0,0.0,67,0.00,,,0.00,WUHU216HW,2013-09-08 00:08:00,
2013-09-07 17:13:00,71.8,60.7,30.06,North,0,0.0,0.0,68,0.00,,,0.00,WUHU216HW,2013-09-08 00:13:00,
2013-09-07 17:18:00,71.5,60.0,30.05,North,0,0.0,0.0,67,0.00,,,0.00,WUHU216HW,2013-09-08 00:18:00,
2013-09-07 17:23:00,71.5,60.0,30.05,North,0,0.0,0.0,67,0.00,,,0.00,WUHU216HW,2013-09-08 00:23:00,
2013-09-07 17:28:00,71.3,60.1,30.05,North,0,0.0,0.0,68,0.00,,,0.00,WUHU216HW,2013-09-08 00:28:00,
2013-09-07 17:33:00,71.1,59.6,30.06,North,0,0.0,0.0,67,0.00,,,0.00,WUHU216HW,2013-09-08 00:33:00,
2013-09-07 17:38:00,70.9,59.9,30.06,North,0,0.0,0.0,68,0.00,,,0.00,WUHU216HW,2013-09-08 00:38:00,
2013-09-07 17:43:00,71.1,59.6,30.05,North,0,0.0,0.0,67,0.00,,,0.00,WUHU216HW,2013-09-08 00:43:00,
2013-09-07 17:48:00,71.3,59.8,30.05,North,0,0.0,0.0,67,0.00,,,0.00,WUHU216HW,2013-09-08 00:48:00,
2013-09-07 17:53:00,71.8,60.3,30.06,North,0,0.0,0.0,67,0.00,,,0.00,WUHU216HW,2013-09-08 00:53:00,
2013-09-07 17:58:00,73.1,61.0,30.05,North,0,0.0,0.0,66,0.00,,,0.00,WUHU216HW,2013-09-08 00:58:00,
2013-09-07 18:03:00,74.2,61.7,30.05,North,0,0.0,0.0,65,0.00,,,0.00,WUHU216HW,2013-09-08 01:03:00,
2013-09-07 18:08:00,75.4,61.5,30.05,North,0,0.0,0.0,62,0.00,,,0.00,WUHU216HW,2013-09-08 01:08:00,
2013-09-07 18:13:00,75.1,60.8,30.05,North,0,0.0,0.0,61,0.00,,,0.00,WUHU216HW,2013-09-08 01:13:00,
2013-09-07 18:18:00,74.5,60.7,30.05,North,0,0.0,0.0,62,0.00,,,0.00,WUHU216HW,2013-09-08 01:18:00,
2013-09-07 18:23:00,74.2,61.2,30.05,North,0,0.0,0.0,64,0.00,,,0.00,WUHU216HW,2013-09-08 01:23:00,
2013-09-07 18:28:00,74.5,61.6,30.05,North,0,0.0,0.0,64,0.00,,,0.00,WUHU216HW,2013-09-08 01:28:00,
2013-09-07 18:33:00,74.2,61.2,30.05,North,0,0.0,0.0,64,0.00,,,0.00,WUHU216HW,2013-09-08 01:33:00,
2013-09-07 18:38:00,74.2,60.8,30.05,North,0,0.0,0.0,63,0.00,,,0.00,WUHU216HW,2013-09-08 01:38:00,
2013-09-07 18:43:00,72.2,60.2,30.05,North,0,0.0,0.0,66,0.00,,,0.00,WUHU216HW,2013-09-08 01:43:00,
2013-09-07 18:48:00,70.9,59.4,30.05,North,0,0.0,0.0,67,0.00,,,0.00,WUHU216HW,2013-09-08 01:48:00,
2013-09-07 18:54:00,70.2,59.5,30.05,North,0,0.0,0.0,69,0.00,,,0.00,WUHU216HW,2013-09-08 01:54:00,
2013-09-07 18:59:00,69.8,59.6,30.05,North,0,0.0,0.0,70,0.00,,,0.00,WUHU216HW,2013-09-08 01:59:00,
2013-09-07 19:04:00,69.5,59.2,30.05,North,0,0.0,0.0,70,0.00,,,0.00,WUHU216HW,2013-09-08 02:04:00,
2013-09-07 19:09:00,69.1,59.3,30.05,North,0,0.0,0.0,71,0.00,,,0.00,WUHU216HW,2013-09-08 02:09:00,
2013-09-07 19:14:00,68.8,59.4,30.06,North,0,0.0,0.0,72,0.00,,,0.00,WUHU216HW,2013-09-08 02:14:00,
2013-09-07 19:19:00,68.6,59.2,30.05,North,0,0.0,0.0,72,0.00,,,0.00,WUHU216HW,2013-09-08 02:19:00,
2013-09-07 19:26:00,68.2,59.2,30.06,North,0,0.0,0.0,73,0.00,,,0.00,WUHU216HW,2013-09-08 02:26:00,
2013-09-07 19:31:00,67.7,59.1,30.06,North,0,0.0,0.0,74,0.00,,,0.00,WUHU216HW,2013-09-08 02:31:00,
2013-09-07 19:36:00,67.1,58.6,30.06,North,0,0.0,0.0,74,0.00,,,0.00,WUHU216HW,2013-09-08 02:36:00,
2013-09-07 19:41:00,66.4,58.2,30.06,North,0,0.0,0.0,75,0.00,,,0.00,WUHU216HW,2013-09-08 02:41:00,
2013-09-07 19:46:00,65.9,58.5,30.06,North,0,0.0,0.0,77,0.00,,,0.00,WUHU216HW,2013-09-08 02:46:00,
2013-09-07 19:51:00,65.3,58.0,30.06,North,0,0.0,0.0,77,0.00,,,0.00,WUHU216HW,2013-09-08 02:51:00,
2013-09-07 19:56:00,65.0,57.6,30.06,North,0,0.0,0.0,77,0.00,,,0.00,WUHU216HW,2013-09-08 02:56:00,
2013-09-07 20:01:00,64.8,57.8,30.06,North,0,0.0,0.0,78,0.00,,,0.00,WUHU216HW,2013-09-08 03:01:00,
2013-09-07 20:06:00,64.8,58.2,30.06,North,0,0.0,0.0,79,0.00,,,0.00,WUHU216HW,2013-09-08 03:06:00,
2013-09-07 20:11:00,64.3,57.6,30.06,North,0,0.0,0.0,79,0.00,,,0.00,WUHU216HW,2013-09-08 03:11:00,
2013-09-07 20:16:00,63.9,57.6,30.06,North,0,0.0,0.0,80,0.00,,,0.00,WUHU216HW,2013-09-08 03:16:00,
2013-09-07 20:21:00,63.5,57.2,30.06,North,0,0.0,0.0,80,0.00,,,0.00,WUHU216HW,2013-09-08 03:21:00,
2013-09-07 20:26:00,63.2,56.9,30.06,North,0,0.0,0.0,80,0.00,,,0.00,WUHU216HW,2013-09-08 03:26:00,
2013-09-07 20:31:00,63.0,57.1,30.06,North,0,0.0,0.0,81,0.00,,,0.00,WUHU216HW,2013-09-08 03:31:00,
2013-09-07 20:36:00,63.0,57.7,30.06,North,0,0.0,0.0,83,0.00,,,0.00,WUHU216HW,2013-09-08 03:36:00,
2013-09-07 20:41:00,62.8,57.5,30.06,North,0,0.0,0.0,83,0.00,,,0.00,WUHU216HW,2013-09-08 03:41:00,
2013-09-07 20:46:00,62.6,57.3,30.06,North,0,0.0,0.0,83,0.00,,,0.00,WUHU216HW,2013-09-08 03:46:00,
2013-09-07 20:51:00,62.3,57.1,30.06,North,0,0.0,0.0,83,0.00,,,0.00,WUHU216HW,2013-09-08 03:51:00,
2013-09-07 20:56:00,62.1,56.9,30.06,North,0,0.0,0.0,83,0.00,,,0.00,WUHU216HW,2013-09-08 03:56:00,
2013-09-07 21:01:00,61.9,57.1,30.07,North,0,0.0,0.0,84,0.00,,,0.00,WUHU216HW,2013-09-08 04:01:00,
2013-09-07 21:02:00,61.7,56.9,30.07,North,0,0.0,0.0,84,0.00,,,0.00,WUHU216HW,2013-09-08 04:02:00,
2013-09-07 21:07:00,61.6,56.7,30.07,North,0,0.0,0.0,84,0.00,,,0.00,WUHU216HW,2013-09-08 04:07:00,
2013-09-07 21:13:00,61.4,56.9,30.07,North,0,0.0,0.0,85,0.00,,,0.00,WUHU216HW,2013-09-08 04:13:00,
2013-09-07 21:18:00,61.2,56.7,30.07,North,0,0.0,0.0,85,0.00,,,0.00,WUHU216HW,2013-09-08 04:18:00,
2013-09-07 21:23:00,61.0,56.5,30.07,North,0,0.0,0.0,85,0.00,,,0.00,WUHU216HW,2013-09-08 04:23:00,
2013-09-07 21:28:00,60.8,56.7,30.07,North,0,0.0,0.0,86,0.00,,,0.00,WUHU216HW,2013-09-08 04:28:00,
2013-09-07 21:34:00,60.8,56.7,30.07,North,0,0.0,0.0,86,0.00,,,0.00,WUHU216HW,2013-09-08 04:34:00,
2013-09-07 21:39:00,60.7,56.8,30.07,North,0,0.0,0.0,87,0.00,,,0.00,WUHU216HW,2013-09-08 04:39:00,
2013-09-07 21:45:00,60.7,56.8,30.07,North,0,0.0,0.0,87,0.00,,,0.00,WUHU216HW,2013-09-08 04:45:00,
2013-09-07 21:50:00,60.7,56.8,30.07,North,0,0.0,0.0,87,0.00,,,0.00,WUHU216HW,2013-09-08 04:50:00,
2013-09-07 21:55:00,60.7,56.8,30.07,North,0,0.0,0.0,87,0.00,,,0.00,WUHU216HW,2013-09-08 04:55:00,
2013-09-07 22:00:00,60.5,56.6,30.07,North,0,0.0,0.0,87,0.00,,,0.00,WUHU216HW,2013-09-08 05:00:00,
2013-09-07 22:05:00,61.6,57.7,30.07,North,0,0.0,0.0,87,0.00,,,0.00,WUHU216HW,2013-09-08 05:05:00,
2013-09-07 22:10:00,61.9,57.7,30.07,North,0,0.0,0.0,86,0.00,,,0.00,WUHU216HW,2013-09-08 05:10:00,
2013-09-07 22:15:00,61.7,57.5,30.07,North,0,0.0,0.0,86,0.00,,,0.00,WUHU216HW,2013-09-08 05:15:00,
2013-09-07 22:20:00,61.4,56.9,30.08,North,0,0.0,0.0,85,0.00,,,0.00,WUHU216HW,2013-09-08 05:20:00,
2013-09-07 22:25:00,60.8,56.7,30.08,North,0,0.0,0.0,86,0.00,,,0.00,WUHU216HW,2013-09-08 05:25:00,
2013-09-07 22:30:00,60.5,56.4,30.08,North,0,0.0,0.0,86,0.00,,,0.00,WUHU216HW,2013-09-08 05:30:00,
2013-09-07 22:35:00,60.3,56.4,30.08,North,0,0.0,0.0,87,0.00,,,0.00,WUHU216HW,2013-09-08 05:35:00,
2013-09-07 22:40:00,60.1,56.3,30.08,North,0,0.0,0.0,87,0.00,,,0.00,WUHU216HW,2013-09-08 05:40:00,
2013-09-07 22:45:00,59.9,56.4,30.08,North,0,0.0,0.0,88,0.00,,,0.00,WUHU216HW,2013-09-08 05:45:00,
2013-09-07 22:50:00,60.1,56.6,30.08,North,0,0.0,0.0,88,0.00,,,0.00,WUHU216HW,2013-09-08 05:50:00,
2013-09-07 22:55:00,60.1,56.6,30.08,North,0,0.0,0.0,88,0.00,,,0.00,WUHU216HW,2013-09-08 05:55:00,
2013-09-07 23:00:00,60.1,56.6,30.08,North,0,0.0,0.0,88,0.00,,,0.00,WUHU216HW,2013-09-08 06:00:00,
2013-09-07 23:05:00,60.1,56.6,30.08,North,0,0.0,0.0,88,0.00,,,0.00,WUHU216HW,2013-09-08 06:05:00,
2013-09-07 23:10:00,59.8,56.3,30.08,North,0,0.0,0.0,88,0.00,,,0.00,WUHU216HW,2013-09-08 06:10:00,
2013-09-07 23:15:00,59.8,56.3,30.08,North,0,0.0,0.0,88,0.00,,,0.00,WUHU216HW,2013-09-08 06:15:00,
2013-09-07 23:20:00,59.6,56.1,30.08,North,0,0.0,0.0,88,0.00,,,0.00,WUHU216HW,2013-09-08 06:20:00,
2013-09-07 23:25:00,59.4,56.2,30.08,North,0,0.0,0.0,89,0.00,,,0.00,WUHU216HW,2013-09-08 06:25:00,
2013-09-07 23:30:00,59.6,56.3,30.08,North,0,0.0,0.0,89,0.00,,,0.00,WUHU216HW,2013-09-08 06:30:00,
2013-09-07 23:35:00,59.4,56.2,30.08,North,0,0.0,0.0,89,0.00,,,0.00,WUHU216HW,2013-09-08 06:35:00,
2013-09-07 23:40:00,59.6,56.3,30.08,North,0,0.0,0.0,89,0.00,,,0.00,WUHU216HW,2013-09-08 06:40:00,
2013-09-07 23:45:00,59.4,56.2,30.08,North,0,0.0,0.0,89,0.00,,,0.00,WUHU216HW,2013-09-08 06:45:00,
2013-09-07 23:50:00,59.4,56.2,30.08,North,0,0.0,0.0,89,0.00,,,0.00,WUHU216HW,2013-09-08 06:50:00,
2013-09-07 23:55:00,59.4,56.5,30.08,North,0,0.0,0.0,90,0.00,,,0.00,WUHU216HW,2013-09-08 06:55:00,